Takashima — JD3244 — position and weather

sailwx.info

Track history (hours):
 
Tides and Currents Weather Stations Pressure Air Temp Water Temp Dewpoint Dewpoint Depression Visibility Wind Speed Wind Dir Waves Ship Positions

Takashima

Last reported at 2017-Oct-16 11:29 UTC. Time now 2017-Oct-17 13:36 UTC.
Position N 34°51' E 139°09'.

Length 63 m; draft 3.6 m.

Type: Cargo ship. MMSI: 431003158.

Date/timePositionNaut miles runAvg speedWind from/ knotsBaromVisibWave heightAir tempDewpointWater temp
2017-Oct-16 11:29N 34°51' E 139°09'2210.7
2017-Oct-16 09:28N 35°03' E 139°30'511.4
2017-Oct-16 09:00N 35°06' E 139°36'611.9
2017-Oct-16 08:30N 35°09' E 139°42'612.3
2017-Oct-16 08:00N 35°14' E 139°46'612.0
2017-Oct-16 07:30N 35°19' E 139°43'611.1
2017-Oct-16 07:00N 35°25' E 139°43'612.3
2017-Oct-16 06:30N 35°29' E 139°50'611.3
2017-Oct-16 06:00N 35°30' E 139°56'4 0.2
2017-Oct-15 11:16N 35°28' E 139°52'310.9
2017-Oct-15 11:00N 35°27' E 139°49'510.5
2017-Oct-15 10:30N 35°23' E 139°45'510.0
2017-Oct-15 10:00N 35°18' E 139°45'510.0
2017-Oct-15 09:30N 35°13' E 139°47'510.8
2017-Oct-15 09:00N 35°07' E 139°46'510.8
2017-Oct-15 08:30N 35°03' E 139°41'510.9
2017-Oct-15 08:00N 35°00' E 139°36'231 8.8
2017-Oct-14 05:41N 34°07' E 135°03'211.5
2017-Oct-14 05:29N 34°10' E 135°03'611.3
2017-Oct-14 05:00N 34°15' E 135°03'1411.0
2017-Oct-14 03:41N 34°27' E 135°13'212.0
2017-Oct-14 03:30N 34°28' E 135°15'712.0
2017-Oct-14 02:58N 34°32' E 135°22'2 3.5
2017-Oct-14 02:25N 34°32' E 135°24'0 0.1
2017-Oct-14 01:55N 34°32' E 135°24'0 0.0
2017-Oct-14 01:01N 34°32' E 135°24'0 0.1
2017-Oct-14 00:55N 34°32' E 135°24'0 0.0
2017-Oct-13 23:34N 34°32' E 135°24'1 3.5
2017-Oct-13 23:23N 34°32' E 135°24'3 4.3
2017-Oct-13 22:44N 34°32' E 135°20'0 0.0
2017-Oct-13 22:26N 34°32' E 135°20'0 0.0
2017-Oct-13 21:20N 34°32' E 135°20'0 0.0
2017-Oct-13 20:50N 34°32' E 135°20'0 0.0
2017-Oct-13 19:32N 34°32' E 135°20'0 0.0
2017-Oct-13 19:26N 34°32' E 135°20'0 0.0
2017-Oct-13 18:38N 34°32' E 135°20'0 0.0
2017-Oct-13 18:26N 34°32' E 135°20'0 0.0
2017-Oct-13 17:56N 34°32' E 135°20'0 0.0
2017-Oct-13 17:14N 34°32' E 135°20'0 0.0
2017-Oct-13 16:56N 34°32' E 135°20'0 0.0
2017-Oct-13 16:26N 34°32' E 135°20'0 0.0
2017-Oct-13 15:56N 34°32' E 135°20'0 0.0
2017-Oct-13 15:20N 34°32' E 135°20'0 0.0
2017-Oct-13 14:50N 34°32' E 135°20'0 0.0
2017-Oct-13 14:26N 34°32' E 135°20'0 0.1
2017-Oct-13 13:44N 34°32' E 135°20'2 6.9
2017-Oct-13 13:30N 34°31' E 135°19'611.3
2017-Oct-13 12:57N 34°27' E 135°13'1310.8
2017-Oct-13 11:45N 34°17' E 135°03'310.3
2017-Oct-13 11:30N 34°14' E 135°03'611.6
2017-Oct-13 10:58N 34°08' E 135°02'206 9.4
2017-Oct-12 13:06N 34°49' E 139°08'112.1
2017-Oct-12 12:59N 34°50' E 139°08'2010.2
2017-Oct-12 11:02N 35°01' E 139°29'0 9.7
2017-Oct-12 11:00N 35°01' E 139°29'510.2
2017-Oct-12 10:30N 35°03' E 139°35'510.4
2017-Oct-12 10:00N 35°05' E 139°41'5 9.2
2017-Oct-12 09:30N 35°09' E 139°44'510.7
2017-Oct-12 09:00N 35°14' E 139°46'611.2
2017-Oct-12 08:30N 35°19' E 139°43'510.9
2017-Oct-12 08:00N 35°24' E 139°43'611.4
2017-Oct-12 07:30N 35°28' E 139°49'611.2
2017-Oct-12 06:59N 35°30' E 139°55'253 5.1
2017-Oct-10 05:20N 34°09' E 135°03'411.5
2017-Oct-10 05:00N 34°13' E 135°03'1711.4
2017-Oct-10 03:30N 34°28' E 135°13'611.5
2017-Oct-10 03:00N 34°31' E 135°19'4 7.5
2017-Oct-10 02:26N 34°32' E 135°24'0 0.0
2017-Oct-10 01:51N 34°32' E 135°24'0 0.0
2017-Oct-10 01:30N 34°32' E 135°24'0 0.0
2017-Oct-10 01:00N 34°32' E 135°24'0 0.0
2017-Oct-10 00:19N 34°32' E 135°24'0 0.0
2017-Oct-10 00:00N 34°32' E 135°24'0 0.0
2017-Oct-09 23:30N 34°32' E 135°24'3 3.9
2017-Oct-09 22:50N 34°31' E 135°21'0 0.0
2017-Oct-09 22:26N 34°31' E 135°21'0 0.0
2017-Oct-09 21:56N 34°31' E 135°21'0 0.0
2017-Oct-09 21:08N 34°31' E 135°21'0 0.0
2017-Oct-09 20:44N 34°31' E 135°21'0 0.0
2017-Oct-09 20:26N 34°31' E 135°21'0 0.1
2017-Oct-09 19:50N 34°31' E 135°21'3 8.1
2017-Oct-09 19:30N 34°32' E 135°18'612.1
2017-Oct-09 19:00N 34°34' E 135°11'713.6
2017-Oct-09 18:30N 34°36' E 135°03'  
Track history (hours):
 
Tides and Currents Weather Stations Pressure Air Temp Water Temp Dewpoint Dewpoint Depression Visibility Wind Speed Wind Dir Waves Ship Positions

Takashima

Last reported at 2017-Oct-16 11:29 UTC. Time now 2017-Oct-17 13:36 UTC.
Position N 34°51' E 139°09'.

Length 63 m; draft 3.6 m.

Type: Cargo ship. MMSI: 431003158.

Date/timePositionNaut miles runAvg speedWind from/ knotsBaromVisibWave heightAir tempDewpointWater temp
2017-Oct-16 11:29N 34°51' E 139°09'2210.7
2017-Oct-16 09:28N 35°03' E 139°30'511.4
2017-Oct-16 09:00N 35°06' E 139°36'611.9
2017-Oct-16 08:30N 35°09' E 139°42'612.3
2017-Oct-16 08:00N 35°14' E 139°46'612.0
2017-Oct-16 07:30N 35°19' E 139°43'611.1
2017-Oct-16 07:00N 35°25' E 139°43'612.3
2017-Oct-16 06:30N 35°29' E 139°50'611.3
2017-Oct-16 06:00N 35°30' E 139°56'4 0.2
2017-Oct-15 11:16N 35°28' E 139°52'310.9
2017-Oct-15 11:00N 35°27' E 139°49'510.5
2017-Oct-15 10:30N 35°23' E 139°45'510.0
2017-Oct-15 10:00N 35°18' E 139°45'510.0
2017-Oct-15 09:30N 35°13' E 139°47'510.8
2017-Oct-15 09:00N 35°07' E 139°46'510.8
2017-Oct-15 08:30N 35°03' E 139°41'510.9
2017-Oct-15 08:00N 35°00' E 139°36'231 8.8
2017-Oct-14 05:41N 34°07' E 135°03'211.5
2017-Oct-14 05:29N 34°10' E 135°03'611.3
2017-Oct-14 05:00N 34°15' E 135°03'1411.0
2017-Oct-14 03:41N 34°27' E 135°13'212.0
2017-Oct-14 03:30N 34°28' E 135°15'712.0
2017-Oct-14 02:58N 34°32' E 135°22'2 3.5
2017-Oct-14 02:25N 34°32' E 135°24'0 0.1
2017-Oct-14 01:55N 34°32' E 135°24'0 0.0
2017-Oct-14 01:01N 34°32' E 135°24'0 0.1
2017-Oct-14 00:55N 34°32' E 135°24'0 0.0
2017-Oct-13 23:34N 34°32' E 135°24'1 3.5
2017-Oct-13 23:23N 34°32' E 135°24'3 4.3
2017-Oct-13 22:44N 34°32' E 135°20'0 0.0
2017-Oct-13 22:26N 34°32' E 135°20'0 0.0
2017-Oct-13 21:20N 34°32' E 135°20'0 0.0
2017-Oct-13 20:50N 34°32' E 135°20'0 0.0
2017-Oct-13 19:32N 34°32' E 135°20'0 0.0
2017-Oct-13 19:26N 34°32' E 135°20'0 0.0
2017-Oct-13 18:38N 34°32' E 135°20'0 0.0
2017-Oct-13 18:26N 34°32' E 135°20'0 0.0
2017-Oct-13 17:56N 34°32' E 135°20'0 0.0
2017-Oct-13 17:14N 34°32' E 135°20'0 0.0
2017-Oct-13 16:56N 34°32' E 135°20'0 0.0
2017-Oct-13 16:26N 34°32' E 135°20'0 0.0
2017-Oct-13 15:56N 34°32' E 135°20'0 0.0
2017-Oct-13 15:20N 34°32' E 135°20'0 0.0
2017-Oct-13 14:50N 34°32' E 135°20'0 0.0
2017-Oct-13 14:26N 34°32' E 135°20'0 0.1
2017-Oct-13 13:44N 34°32' E 135°20'2 6.9
2017-Oct-13 13:30N 34°31' E 135°19'611.3
2017-Oct-13 12:57N 34°27' E 135°13'1310.8
2017-Oct-13 11:45N 34°17' E 135°03'310.3
2017-Oct-13 11:30N 34°14' E 135°03'611.6
2017-Oct-13 10:58N 34°08' E 135°02'206 9.4
2017-Oct-12 13:06N 34°49' E 139°08'112.1
2017-Oct-12 12:59N 34°50' E 139°08'2010.2
2017-Oct-12 11:02N 35°01' E 139°29'0 9.7
2017-Oct-12 11:00N 35°01' E 139°29'510.2
2017-Oct-12 10:30N 35°03' E 139°35'510.4
2017-Oct-12 10:00N 35°05' E 139°41'5 9.2
2017-Oct-12 09:30N 35°09' E 139°44'510.7
2017-Oct-12 09:00N 35°14' E 139°46'611.2
2017-Oct-12 08:30N 35°19' E 139°43'510.9
2017-Oct-12 08:00N 35°24' E 139°43'611.4
2017-Oct-12 07:30N 35°28' E 139°49'611.2
2017-Oct-12 06:59N 35°30' E 139°55'253 5.1
2017-Oct-10 05:20N 34°09' E 135°03'411.5
2017-Oct-10 05:00N 34°13' E 135°03'1711.4
2017-Oct-10 03:30N 34°28' E 135°13'611.5
2017-Oct-10 03:00N 34°31' E 135°19'4 7.5
2017-Oct-10 02:26N 34°32' E 135°24'0 0.0
2017-Oct-10 01:51N 34°32' E 135°24'0 0.0
2017-Oct-10 01:30N 34°32' E 135°24'0 0.0
2017-Oct-10 01:00N 34°32' E 135°24'0 0.0
2017-Oct-10 00:19N 34°32' E 135°24'0 0.0
2017-Oct-10 00:00N 34°32' E 135°24'0 0.0
2017-Oct-09 23:30N 34°32' E 135°24'3 3.9
2017-Oct-09 22:50N 34°31' E 135°21'0 0.0
2017-Oct-09 22:26N 34°31' E 135°21'0 0.0
2017-Oct-09 21:56N 34°31' E 135°21'0 0.0
2017-Oct-09 21:08N 34°31' E 135°21'0 0.0
2017-Oct-09 20:44N 34°31' E 135°21'0 0.0
2017-Oct-09 20:26N 34°31' E 135°21'0 0.1
2017-Oct-09 19:50N 34°31' E 135°21'3 8.1
2017-Oct-09 19:30N 34°32' E 135°18'612.1
2017-Oct-09 19:00N 34°34' E 135°11'713.6
2017-Oct-09 18:30N 34°36' E 135°03'  

Dump ship's entire track history